Airfield :
LOGIN :

Register | Disclaimer

   EN    FR    IT 

 










Legend :    VFR   Marginal VFR   IFR   Intensive IFR   Very Intensive IFR
Visi :
Ceiling :
>= 8 km
>= 3000ft
5 to 8 km
1000 to 3000 ft
1500m to 5 km
500 to 1000 ft
800 to 1500m
200 to 500 ft
< 800m
< 200 ft
Symbols :   Thunderstorms  Fog  Heavy snow  Heavy precipitations  Wind > 20 kt
SIGMETs :     Misc.  Thunderstorms  Icing  Turbulence  Mountain Waves  Volcanic Ashes







- Airport Elevation : 184 ft
- IATA code : BRU


EBBR - Bruxelles

CURRENT METAR :
  • 260850Z 26013KT 9999 SCT028 11/05 Q1017 NOSIG

EXPIRED METARs :
  • 260820Z 26014KT 9999 SCT025 10/05 Q1017 NOSIG
  • 260750Z 26014KT 9999 BKN022 10/05 Q1017 NOSIG
  • 260720Z 27015KT 9999 SCT017 BKN025 09/05 Q1017 NOSIG
  • 260650Z 26011KT 9999 SCT017 BKN025 09/05 Q1017 NOSIG
  • 260620Z 26014KT 9999 SCT017 SCT027 09/05 Q1016 NOSIG

TAF TAF EBBR
Valid from the 26 at 06:00 until the 27 at 12:00 UTC


260510Z 2606/2712 25011KT 9999 FEW025
BECMG 2620/2622 18005KT
No reported NOTAMs for that airfield.



MET'MAP, your aeronautical weather chart ! - Copyright ORBIFLY December 2007 - Disclaimer

ORBIFLY MET'MAP TEAM :

Programming & Development : Alexandra Zaïnal
Concept & Development : Baudouin d'Aumeries
Co-Development & Prog : Marc-Olivier Méhu
Technical & hardware support : Manuel Goepfert

Contact : metmap@orbifly.com




SOURCES & CREDITS :

   NOAA